Packwood, WA

9:50 PM PDT on September 20, 2014 (GMT -0700)
Lost Creek | Change Station
CLOSE
Current Station
Personal Weather Station
Location: Glenoma, WA
Elevation: 1119 ft
Nearby Weather Stations

Elev 1119 ft 46.54 °N, 122.06 °W | Updated 8 seconds ago

Clear
Clear
57.9 °F
Feels Like 57.9 °F
N
2.7
Wind Variable Wind from NW
Gusts 3.4 mph

Today
High -- | Low -- °F
--% Chance of Precip.
Yesterday
High -- | Low -- °F
Precip. -- in
6:51 AM 7:08 PM
Waning Crescent, 8% visible
Pressure 29.91 in
Visibility 10.0 miles
Clouds Clear
Dew Point 53 °F
Humidity 84%
Rainfall 0.00 in
Snow Depth 0 in , 0 in , 0 in
UV 0 out of 12
Pollen 3.20 out of 12
Air Quality Not available.
Flu Activity Not available.
METAR KTCM 210358Z AUTO 04002KT 10SM CLR 18/13 A2990 RMK AO2 SLP128 T01770134 $

More Conditions Fewer Conditions

Pressure 29.91 in
Visibility 10.0 miles
Clouds Clear
Dew Point 53 °F
Humidity 84%
Rainfall 0.00 in
Snow Depth 0 in , 0 in , 0 in
UV 0 out of 12
Pollen 3.20 out of 12
Air Quality Not available.
Flu Activity Not available.
METAR KTCM 210358Z AUTO 04002KT 10SM CLR 18/13 A2990 RMK AO2 SLP128 T01770134 $

More Conditions Fewer Conditions

10-Day Weather Forecast

Almanac

Astronomy

Sep. 20, 2014 Rise Set
Actual Time 6:51 AM PDT 7:08 PM PDT
Civil Twilight 6:20 AM PDT 7:38 PM PDT
Nautical Twilight 5:45 AM PDT 8:13 PM PDT
Astronomical Twilight 5:08 AM PDT 8:50 PM PDT
Moon 3:25 AM PDT (9/20) 5:22 PM PDT (9/20)
Length of Visible Light 13h 17m
Length of Day
12h 17m
Tomorrow will be 3m 18s shorter.
Waning Crescent, 8% of the Moon is Illuminated
Sep 21
Waning Crescent
Sep 24
New
Oct 1
First Quarter
Oct 8
Full
Oct 15
Last Quarter

Yesterday's Extremes

State Highs State Lows

Community

WunderPhotos

Upload Photos

1,755,086 photos uploaded!

Nearby

Snow Depth

Station Depth Elevation
Surprise Lakes 0 in 4250 ft
Grouse Camp 0 in 5380 ft
Harts Pass 0 in 6500 ft
Pigtail Peak 0 in 5900 ft
Touchet 0 in 5530 ft

Earthquake Activity

City Distance Mag. Time & Date
No recent earthquake activity has been reported nearby.
Minimum magnitude displayed is 2.5.

Coastal Water Temperatures

Place Temperature
No Stations Reporting

Nearby Weather Stations